sensor_id;sensor_type;location;lat;lon;timestamp;pressure;altitude;pressure_sealevel;temperature;humidity
33496;BME280;19836;55.812;37.560;2024-02-23T00:02:10;99839.94;;;0.32;74.75
33496;BME280;19836;55.812;37.560;2024-02-23T00:04:39;99844.28;;;0.30;75.05
33496;BME280;19836;55.812;37.560;2024-02-23T00:07:05;99841.59;;;0.25;75.13
33496;BME280;19836;55.812;37.560;2024-02-23T00:09:34;99852.16;;;0.27;75.04
33496;BME280;19836;55.812;37.560;2024-02-23T00:12:01;99849.53;;;0.28;75.40
33496;BME280;19836;55.812;37.560;2024-02-23T00:14:30;99857.44;;;0.30;75.02
33496;BME280;19836;55.812;37.560;2024-02-23T00:17:04;99839.94;;;0.32;75.17
33496;BME280;19836;55.812;37.560;2024-02-23T00:19:31;99850.47;;;0.35;75.46
33496;BME280;19836;55.812;37.560;2024-02-23T00:22:00;99851.28;;;0.28;75.19
33496;BME280;19836;55.812;37.560;2024-02-23T00:24:26;99843.25;;;0.19;75.31
33496;BME280;19836;55.812;37.560;2024-02-23T00:27:01;99847.69;;;0.21;75.25
33496;BME280;19836;55.812;37.560;2024-02-23T00:29:29;99848.53;;;0.19;75.30
33496;BME280;19836;55.812;37.560;2024-02-23T00:31:58;99840.59;;;0.16;75.38
33496;BME280;19836;55.812;37.560;2024-02-23T00:34:30;99847.66;;;0.20;75.40
33496;BME280;19836;55.812;37.560;2024-02-23T00:36:57;99850.28;;;0.17;75.87
33496;BME280;19836;55.812;37.560;2024-02-23T00:39:24;99845.91;;;0.20;75.81
33496;BME280;19836;55.812;37.560;2024-02-23T00:41:50;99846.84;;;0.24;75.96
33496;BME280;19836;55.812;37.560;2024-02-23T00:44:16;99848.59;;;0.22;75.86
33496;BME280;19836;55.812;37.560;2024-02-23T00:46:42;99847.72;;;0.23;75.73
33496;BME280;19836;55.812;37.560;2024-02-23T00:49:11;99861.78;;;0.25;76.07
33496;BME280;19836;55.812;37.560;2024-02-23T00:51:46;99865.28;;;0.24;76.33
33496;BME280;19836;55.812;37.560;2024-02-23T00:54:18;99869.72;;;0.28;76.56
33496;BME280;19836;55.812;37.560;2024-02-23T00:56:45;99856.56;;;0.28;76.43
33496;BME280;19836;55.812;37.560;2024-02-23T00:59:11;99860.94;;;0.29;76.32
33496;BME280;19836;55.812;37.560;2024-02-23T01:01:38;99865.34;;;0.30;76.54
33496;BME280;19836;55.812;37.560;2024-02-23T01:04:04;99864.56;;;0.37;76.34
33496;BME280;19836;55.812;37.560;2024-02-23T01:06:30;99869.00;;;0.42;76.40
33496;BME280;19836;55.812;37.560;2024-02-23T01:08:59;99870.81;;;0.43;76.26
33496;BME280;19836;55.812;37.560;2024-02-23T01:11:25;99863.81;;;0.47;76.68
33496;BME280;19836;55.812;37.560;2024-02-23T01:13:51;99869.09;;;0.47;76.59
33496;BME280;19836;55.812;37.560;2024-02-23T01:16:20;99861.13;;;0.44;76.54
33496;BME280;19836;55.812;37.560;2024-02-23T01:18:47;99869.94;;;0.47;76.70
33496;BME280;19836;55.812;37.560;2024-02-23T01:21:13;99856.78;;;0.47;76.67
33496;BME280;19836;55.812;37.560;2024-02-23T01:23:39;99866.44;;;0.47;76.71
33496;BME280;19836;55.812;37.560;2024-02-23T01:26:05;99859.47;;;0.50;76.48
33496;BME280;19836;55.812;37.560;2024-02-23T01:28:31;99858.56;;;0.50;76.50
33496;BME280;19836;55.812;37.560;2024-02-23T01:30:57;99866.47;;;0.50;76.59
33496;BME280;19836;55.812;37.560;2024-02-23T01:33:29;99855.94;;;0.48;76.37
33496;BME280;19836;55.812;37.560;2024-02-23T01:35:55;99861.19;;;0.50;75.96
33496;BME280;19836;55.812;37.560;2024-02-23T01:38:23;99859.47;;;0.52;76.33
33496;BME280;19836;55.812;37.560;2024-02-23T01:40:53;99864.75;;;0.52;76.67
33496;BME280;19836;55.812;37.560;2024-02-23T01:43:19;99864.75;;;0.52;76.39
33496;BME280;19836;55.812;37.560;2024-02-23T01:45:45;99867.41;;;0.53;75.85
33496;BME280;19836;55.812;37.560;2024-02-23T01:48:12;99861.19;;;0.50;76.24
33496;BME280;19836;55.812;37.560;2024-02-23T01:50:39;99870.88;;;0.52;75.72
33496;BME280;19836;55.812;37.560;2024-02-23T01:53:05;99860.41;;;0.55;76.02
33496;BME280;19836;55.812;37.560;2024-02-23T01:55:31;99854.28;;;0.58;76.16
33496;BME280;19836;55.812;37.560;2024-02-23T01:57:59;99859.59;;;0.61;75.83
33496;BME280;19836;55.812;37.560;2024-02-23T02:00:25;99863.13;;;0.64;75.66
33496;BME280;19836;55.812;37.560;2024-02-23T02:02:55;99864.84;;;0.62;75.72
33496;BME280;19836;55.812;37.560;2024-02-23T02:05:21;99861.38;;;0.65;75.61
33496;BME280;19836;55.812;37.560;2024-02-23T02:07:49;99862.22;;;0.62;75.77
33496;BME280;19836;55.812;37.560;2024-02-23T02:10:20;99849.91;;;0.61;75.35
33496;BME280;19836;55.812;37.560;2024-02-23T02:12:45;99857.84;;;0.63;75.43
33496;BME280;19836;55.812;37.560;2024-02-23T02:15:11;99851.72;;;0.65;75.69
33496;BME280;19836;55.812;37.560;2024-02-23T02:17:37;99849.09;;;0.67;75.65
33496;BME280;19836;55.812;37.560;2024-02-23T02:20:04;99853.50;;;0.68;75.60
33496;BME280;19836;55.812;37.560;2024-02-23T02:22:32;99849.13;;;0.70;75.47
33496;BME280;19836;55.812;37.560;2024-02-23T02:25:00;99852.66;;;0.70;75.62
33496;BME280;19836;55.812;37.560;2024-02-23T02:27:29;99857.00;;;0.67;75.35
33496;BME280;19836;55.812;37.560;2024-02-23T02:29:59;99863.13;;;0.64;75.55
33496;BME280;19836;55.812;37.560;2024-02-23T02:32:25;99865.78;;;0.67;75.43
33496;BME280;19836;55.812;37.560;2024-02-23T02:34:51;99860.56;;;0.70;75.32
33496;BME280;19836;55.812;37.560;2024-02-23T02:37:16;99851.78;;;0.71;75.39
33496;BME280;19836;55.812;37.560;2024-02-23T02:39:42;99854.44;;;0.73;75.02
33496;BME280;19836;55.812;37.560;2024-02-23T02:42:08;99858.84;;;0.74;75.42
33496;BME280;19836;55.812;37.560;2024-02-23T02:44:34;99864.09;;;0.72;75.35
33496;BME280;19836;55.812;37.560;2024-02-23T02:47:00;99858.81;;;0.69;75.03
33496;BME280;19836;55.812;37.560;2024-02-23T02:49:26;99850.81;;;0.65;74.76
33496;BME280;19836;55.812;37.560;2024-02-23T02:51:52;99852.63;;;0.69;74.86
33496;BME280;19836;55.812;37.560;2024-02-23T02:54:18;99856.09;;;0.65;74.83
33496;BME280;19836;55.812;37.560;2024-02-23T02:56:44;99849.06;;;0.64;74.96
33496;BME280;19836;55.812;37.560;2024-02-23T02:59:12;99850.84;;;0.63;74.80
33496;BME280;19836;55.812;37.560;2024-02-23T03:01:39;99853.41;;;0.60;74.75
33496;BME280;19836;55.812;37.560;2024-02-23T03:04:05;99848.16;;;0.60;74.75
33496;BME280;19836;55.812;37.560;2024-02-23T03:06:31;99850.81;;;0.65;74.91
33496;BME280;19836;55.812;37.560;2024-02-23T03:08:57;99857.94;;;0.72;74.84
33496;BME280;19836;55.812;37.560;2024-02-23T03:11:23;99863.22;;;0.75;74.52
33496;BME280;19836;55.812;37.560;2024-02-23T03:13:49;99859.66;;;0.70;74.65
33496;BME280;19836;55.812;37.560;2024-02-23T03:16:16;99869.34;;;0.72;74.77
33496;BME280;19836;55.812;37.560;2024-02-23T03:18:42;99875.53;;;0.73;74.74
33496;BME280;19836;55.812;37.560;2024-02-23T03:21:09;99864.97;;;0.73;74.91
33496;BME280;19836;55.812;37.560;2024-02-23T03:23:35;99874.63;;;0.72;74.86
33496;BME280;19836;55.812;37.560;2024-02-23T03:26:02;99884.31;;;0.75;74.55
33496;BME280;19836;55.812;37.560;2024-02-23T03:28:28;99880.88;;;0.80;74.66
33496;BME280;19836;55.812;37.560;2024-02-23T03:30:54;99877.34;;;0.80;74.46
33496;BME280;19836;55.812;37.560;2024-02-23T03:33:20;99883.44;;;0.73;74.83
33496;BME280;19836;55.812;37.560;2024-02-23T03:35:46;99883.34;;;0.65;74.54
33496;BME280;19836;55.812;37.560;2024-02-23T03:38:12;99878.06;;;0.64;74.21
33496;BME280;19836;55.812;37.560;2024-02-23T03:40:38;99880.69;;;0.64;74.96
33496;BME280;19836;55.812;37.560;2024-02-23T03:43:04;99881.56;;;0.63;74.77
33496;BME280;19836;55.812;37.560;2024-02-23T03:45:31;99881.53;;;0.60;74.70
33496;BME280;19836;55.812;37.560;2024-02-23T03:47:57;99893.84;;;0.59;74.87
33496;BME280;19836;55.812;37.560;2024-02-23T03:50:23;99892.13;;;0.64;74.70
33496;BME280;19836;55.812;37.560;2024-02-23T03:52:49;99893.09;;;0.71;74.80
33496;BME280;19836;55.812;37.560;2024-02-23T03:55:15;99902.84;;;0.79;75.05
33496;BME280;19836;55.812;37.560;2024-02-23T03:57:41;99904.56;;;0.74;74.67
33496;BME280;19836;55.812;37.560;2024-02-23T04:00:08;99899.16;;;0.64;74.58
33496;BME280;19836;55.812;37.560;2024-02-23T04:02:41;99892.16;;;0.67;74.85
33496;BME280;19836;55.812;37.560;2024-02-23T04:05:07;99899.22;;;0.70;75.01
33496;BME280;19836;55.812;37.560;2024-02-23T04:07:33;99889.56;;;0.70;74.56
33496;BME280;19836;55.812;37.560;2024-02-23T04:09:59;99893.06;;;0.68;74.78
33496;BME280;19836;55.812;37.560;2024-02-23T04:12:28;99907.03;;;0.61;74.74
33496;BME280;19836;55.812;37.560;2024-02-23T04:15:09;99911.31;;;0.53;74.58
33496;BME280;19836;55.812;37.560;2024-02-23T04:17:36;99916.56;;;0.48;75.14
33496;BME280;19836;55.812;37.560;2024-02-23T04:20:06;99907.72;;;0.46;75.19
33496;BME280;19836;55.812;37.560;2024-02-23T04:22:36;99899.84;;;0.48;74.93
33496;BME280;19836;55.812;37.560;2024-02-23T04:25:05;99907.78;;;0.51;75.28
33496;BME280;19836;55.812;37.560;2024-02-23T04:27:34;99909.59;;;0.53;75.42
33496;BME280;19836;55.812;37.560;2024-02-23T04:30:00;99911.38;;;0.57;75.41
33496;BME280;19836;55.812;37.560;2024-02-23T04:32:29;99910.56;;;0.63;75.45
33496;BME280;19836;55.812;37.560;2024-02-23T04:34:59;99906.16;;;0.62;75.86
33496;BME280;19836;55.812;37.560;2024-02-23T04:37:25;99910.63;;;0.66;75.68
33496;BME280;19836;55.812;37.560;2024-02-23T04:39:51;99908.00;;;0.69;75.96
33496;BME280;19836;55.812;37.560;2024-02-23T04:42:17;99899.22;;;0.71;75.96
33496;BME280;19836;55.812;37.560;2024-02-23T04:44:43;99909.78;;;0.71;75.69
33496;BME280;19836;55.812;37.560;2024-02-23T04:47:08;99916.81;;;0.69;75.75
33496;BME280;19836;55.812;37.560;2024-02-23T04:49:35;99915.09;;;0.74;75.74
33496;BME280;19836;55.812;37.560;2024-02-23T04:52:01;99915.13;;;0.76;75.86
33496;BME280;19836;55.812;37.560;2024-02-23T04:54:27;99926.59;;;0.81;76.13
33496;BME280;19836;55.812;37.560;2024-02-23T04:56:53;99925.72;;;0.82;75.95
33496;BME280;19836;55.812;37.560;2024-02-23T04:59:18;99924.84;;;0.83;75.95
33496;BME280;19836;55.812;37.560;2024-02-23T05:01:44;99917.81;;;0.82;75.99
33496;BME280;19836;55.812;37.560;2024-02-23T05:04:10;99916.06;;;0.84;75.80
33496;BME280;19836;55.812;37.560;2024-02-23T05:06:36;99922.25;;;0.84;76.05
33496;BME280;19836;55.812;37.560;2024-02-23T05:09:02;99928.38;;;0.85;76.05
33496;BME280;19836;55.812;37.560;2024-02-23T05:11:29;99929.31;;;0.90;75.79
33496;BME280;19836;55.812;37.560;2024-02-23T05:13:55;99935.53;;;0.92;76.36
33496;BME280;19836;55.812;37.560;2024-02-23T05:16:21;99946.09;;;0.95;75.89
33496;BME280;19836;55.812;37.560;2024-02-23T05:18:46;99939.06;;;0.95;75.95
33496;BME280;19836;55.812;37.560;2024-02-23T05:21:14;99934.69;;;0.96;75.69
33496;BME280;19836;55.812;37.560;2024-02-23T05:23:40;99944.38;;;1.00;75.88
33496;BME280;19836;55.812;37.560;2024-02-23T05:26:07;99940.94;;;1.05;75.95
33496;BME280;19836;55.812;37.560;2024-02-23T05:28:33;99933.94;;;1.09;75.76
33496;BME280;19836;55.812;37.560;2024-02-23T05:31:02;99944.47;;;1.06;75.76
33496;BME280;19836;55.812;37.560;2024-02-23T05:33:29;99944.47;;;1.09;76.04
33496;BME280;19836;55.812;37.560;2024-02-23T05:35:55;99948.03;;;1.11;75.79
33496;BME280;19836;55.812;37.560;2024-02-23T05:38:21;99946.25;;;1.10;75.71
33496;BME280;19836;55.812;37.560;2024-02-23T05:40:47;99945.41;;;1.14;75.87
33496;BME280;19836;55.812;37.560;2024-02-23T05:43:14;99951.56;;;1.13;75.66
33496;BME280;19836;55.812;37.560;2024-02-23T05:45:40;99951.56;;;1.13;75.86
33496;BME280;19836;55.812;37.560;2024-02-23T05:48:15;99955.94;;;1.12;75.58
33496;BME280;19836;55.812;37.560;2024-02-23T05:51:11;99958.59;;;1.14;75.63
33496;BME280;19836;55.812;37.560;2024-02-23T05:53:37;99962.13;;;1.13;75.77
33496;BME280;19836;55.812;37.560;2024-02-23T05:56:14;99969.22;;;1.20;75.79
33496;BME280;19836;55.812;37.560;2024-02-23T05:58:40;99957.84;;;1.25;75.70
33496;BME280;19836;55.812;37.560;2024-02-23T06:01:07;99965.78;;;1.27;75.65
33496;BME280;19836;55.812;37.560;2024-02-23T06:03:34;99960.47;;;1.24;75.44
33496;BME280;19836;55.812;37.560;2024-02-23T06:05:59;99958.66;;;1.17;75.72
33496;BME280;19836;55.812;37.560;2024-02-23T06:08:25;99948.03;;;1.12;75.40
33496;BME280;19836;55.812;37.560;2024-02-23T06:10:51;99957.72;;;1.12;75.71
33496;BME280;19836;55.812;37.560;2024-02-23T06:13:17;99963.00;;;1.12;75.85
33496;BME280;19836;55.812;37.560;2024-02-23T06:15:43;99953.28;;;1.08;75.77
33496;BME280;19836;55.812;37.560;2024-02-23T06:18:09;99963.81;;;1.08;75.76
33496;BME280;19836;55.812;37.560;2024-02-23T06:20:35;99967.38;;;1.11;76.17
33496;BME280;19836;55.812;37.560;2024-02-23T06:23:01;99964.78;;;1.14;75.83
33496;BME280;19836;55.812;37.560;2024-02-23T06:25:27;99963.03;;;1.13;75.54
33496;BME280;19836;55.812;37.560;2024-02-23T06:27:53;99967.44;;;1.16;75.73
33496;BME280;19836;55.812;37.560;2024-02-23T06:30:19;99971.00;;;1.21;75.98
33496;BME280;19836;55.812;37.560;2024-02-23T06:32:46;99984.22;;;1.24;75.86
33496;BME280;19836;55.812;37.560;2024-02-23T06:35:12;99973.69;;;1.25;75.70
33496;BME280;19836;55.812;37.560;2024-02-23T06:37:39;99981.56;;;1.21;75.54
33496;BME280;19836;55.812;37.560;2024-02-23T06:40:05;99975.44;;;1.25;75.70
33496;BME280;19836;55.812;37.560;2024-02-23T06:42:33;99979.88;;;1.26;75.73
33496;BME280;19836;55.812;37.560;2024-02-23T06:44:59;99983.34;;;1.25;75.73
33496;BME280;19836;55.812;37.560;2024-02-23T06:47:25;99979.03;;;1.33;76.15
33496;BME280;19836;55.812;37.560;2024-02-23T06:49:51;99977.31;;;1.33;75.91
33496;BME280;19836;55.812;37.560;2024-02-23T06:52:17;99977.22;;;1.27;75.81
33496;BME280;19836;55.812;37.560;2024-02-23T06:54:43;99978.97;;;1.25;76.14
33496;BME280;19836;55.812;37.560;2024-02-23T06:57:09;99976.34;;;1.27;76.16
33496;BME280;19836;55.812;37.560;2024-02-23T06:59:35;99983.44;;;1.34;76.00
33496;BME280;19836;55.812;37.560;2024-02-23T07:02:01;99983.53;;;1.43;75.99
33496;BME280;19836;55.812;37.560;2024-02-23T07:04:28;99991.53;;;1.50;75.80
33496;BME280;19836;55.812;37.560;2024-02-23T07:06:55;99984.50;;;1.51;75.96
33496;BME280;19836;55.812;37.560;2024-02-23T07:09:21;99985.44;;;1.56;75.48
33496;BME280;19836;55.812;37.560;2024-02-23T07:11:53;99995.13;;;1.60;75.48
33496;BME280;19836;55.812;37.560;2024-02-23T07:14:19;100004.84;;;1.61;75.54
33496;BME280;19836;55.812;37.560;2024-02-23T07:16:50;99992.50;;;1.57;75.56
33496;BME280;19836;55.812;37.560;2024-02-23T07:19:18;100000.44;;;1.58;75.27
33496;BME280;19836;55.812;37.560;2024-02-23T07:21:46;99991.56;;;1.55;75.10
33496;BME280;19836;55.812;37.560;2024-02-23T07:24:15;99998.63;;;1.57;75.13
33496;BME280;19836;55.812;37.560;2024-02-23T07:35:53;99990.88;;;1.74;74.87
33496;BME280;19836;55.812;37.560;2024-02-23T07:44:32;99993.44;;;1.66;74.14
33496;BME280;19836;55.812;37.560;2024-02-23T08:41:10;100014.06;;;2.12;72.93
33496;BME280;19836;55.812;37.560;2024-02-23T08:43:39;100023.81;;;2.13;72.74
33496;BME280;19836;55.812;37.560;2024-02-23T08:46:09;100016.75;;;2.15;72.84
33496;BME280;19836;55.812;37.560;2024-02-23T08:48:41;100028.22;;;2.16;72.74
33496;BME280;19836;55.812;37.560;2024-02-23T08:51:08;100034.34;;;2.10;72.78
33496;BME280;19836;55.812;37.560;2024-02-23T08:53:37;100036.88;;;1.97;72.88
33496;BME280;19836;55.812;37.560;2024-02-23T08:56:08;100040.41;;;1.96;72.78
33496;BME280;19836;55.812;37.560;2024-02-23T09:02:25;100042.25;;;2.09;72.95
33496;BME280;19836;55.812;37.560;2024-02-23T09:04:55;100031.66;;;2.06;73.03
33496;BME280;19836;55.812;37.560;2024-02-23T09:07:22;100039.63;;;2.10;72.74
33496;BME280;19836;55.812;37.560;2024-02-23T09:09:51;100039.66;;;2.15;72.78
33496;BME280;19836;55.812;37.560;2024-02-23T09:12:24;100035.28;;;2.17;72.74
33496;BME280;19836;55.812;37.560;2024-02-23T09:15:12;100041.50;;;2.23;72.94
33496;BME280;19836;55.812;37.560;2024-02-23T09:59:52;100039.31;;;2.97;71.07
33496;BME280;19836;55.812;37.560;2024-02-23T10:03:03;100044.53;;;2.91;71.23
33496;BME280;19836;55.812;37.560;2024-02-23T10:28:10;100056.16;;;3.20;70.95
33496;BME280;19836;55.812;37.560;2024-02-23T10:30:39;100048.22;;;3.17;70.88
33496;BME280;19836;55.812;37.560;2024-02-23T10:33:06;100047.34;;;3.24;70.71
33496;BME280;19836;55.812;37.560;2024-02-23T10:35:36;100045.59;;;3.33;70.91
33496;BME280;19836;55.812;37.560;2024-02-23T10:38:08;100042.97;;;3.35;70.92
33496;BME280;19836;55.812;37.560;2024-02-23T10:40:39;100043.88;;;3.43;70.93
33496;BME280;19836;55.812;37.560;2024-02-23T10:43:14;100046.56;;;3.55;71.22
33496;BME280;19836;55.812;37.560;2024-02-23T10:45:42;100052.78;;;3.67;71.39
33496;BME280;19836;55.812;37.560;2024-02-23T10:48:11;100058.06;;;3.67;71.20
33496;BME280;19836;55.812;37.560;2024-02-23T10:50:46;100055.44;;;3.72;70.99
33496;BME280;19836;55.812;37.560;2024-02-23T10:53:14;100070.47;;;3.67;71.03
33496;BME280;19836;55.812;37.560;2024-02-23T10:55:53;100064.28;;;3.74;70.79
33496;BME280;19836;55.812;37.560;2024-02-23T10:58:27;100065.19;;;3.80;70.60
33496;BME280;19836;55.812;37.560;2024-02-23T11:00:59;100070.50;;;3.88;70.70
33496;BME280;19836;55.812;37.560;2024-02-23T11:03:46;100067.84;;;3.82;70.70
33496;BME280;19836;55.812;37.560;2024-02-23T11:06:16;100071.34;;;3.70;70.80
33496;BME280;19836;55.812;37.560;2024-02-23T11:08:52;100068.63;;;3.54;70.67
33496;BME280;19836;55.812;37.560;2024-02-23T11:11:24;100061.56;;;3.56;71.11
33496;BME280;19836;55.812;37.560;2024-02-23T11:14:14;100066.00;;;3.54;71.22
33496;BME280;19836;55.812;37.560;2024-02-23T11:16:42;100066.88;;;3.57;71.17
33496;BME280;19836;55.812;37.560;2024-02-23T11:19:14;100079.25;;;3.66;71.18
33496;BME280;19836;55.812;37.560;2024-02-23T11:22:09;100081.94;;;3.72;71.24
33496;BME280;19836;55.812;37.560;2024-02-23T11:36:09;100077.56;;;4.02;70.73
33496;BME280;19836;55.812;37.560;2024-02-23T11:38:38;100083.75;;;4.00;70.67
33496;BME280;19836;55.812;37.560;2024-02-23T11:41:16;100075.81;;;3.97;70.63
33496;BME280;19836;55.812;37.560;2024-02-23T11:43:42;100069.59;;;3.95;70.64
33496;BME280;19836;55.812;37.560;2024-02-23T11:46:09;100072.25;;;3.93;70.84
33496;BME280;19836;55.812;37.560;2024-02-23T11:48:36;100074.88;;;3.86;70.99
33496;BME280;19836;55.812;37.560;2024-02-23T11:51:09;100071.34;;;3.81;70.96
33496;BME280;19836;55.812;37.560;2024-02-23T11:56:25;100076.63;;;3.73;71.19
33496;BME280;19836;55.812;37.560;2024-02-23T11:58:54;100080.16;;;3.74;71.28
33496;BME280;19836;55.812;37.560;2024-02-23T12:08:13;100085.50;;;3.77;71.16
33496;BME280;19836;55.812;37.560;2024-02-23T12:10:54;100079.25;;;3.67;71.59
33496;BME280;19836;55.812;37.560;2024-02-23T12:14:01;100084.56;;;3.57;71.36
33496;BME280;19836;55.812;37.560;2024-02-23T12:16:44;100087.19;;;3.54;71.69
33496;BME280;19836;55.812;37.560;2024-02-23T12:19:12;100080.09;;;3.48;71.96
33496;BME280;19836;55.812;37.560;2024-02-23T12:21:38;100089.78;;;3.43;72.03
33496;BME280;19836;55.812;37.560;2024-02-23T12:24:05;100088.91;;;3.46;72.15
33496;BME280;19836;55.812;37.560;2024-02-23T12:26:34;100094.25;;;3.56;72.30
33496;BME280;19836;55.812;37.560;2024-02-23T12:29:03;100092.50;;;3.60;72.44
33496;BME280;19836;55.812;37.560;2024-02-23T12:31:32;100096.00;;;3.56;72.39
33496;BME280;19836;55.812;37.560;2024-02-23T12:33:58;100096.00;;;3.53;72.32
33496;BME280;19836;55.812;37.560;2024-02-23T12:36:24;100094.25;;;3.55;72.34
33496;BME280;19836;55.812;37.560;2024-02-23T12:38:50;100093.41;;;3.62;72.76
33496;BME280;19836;55.812;37.560;2024-02-23T12:41:16;100094.28;;;3.64;72.80
33496;BME280;19836;55.812;37.560;2024-02-23T12:43:42;100091.63;;;3.65;72.67
33496;BME280;19836;55.812;37.560;2024-02-23T12:46:08;100088.09;;;3.63;72.60
33496;BME280;19836;55.812;37.560;2024-02-23T12:48:35;100084.56;;;3.64;72.67
33496;BME280;19836;55.812;37.560;2024-02-23T12:51:01;100089.00;;;3.71;72.81
33496;BME280;19836;55.812;37.560;2024-02-23T12:53:32;100085.44;;;3.63;72.98
33496;BME280;19836;55.812;37.560;2024-02-23T12:56:06;100088.94;;;3.55;72.75
33496;BME280;19836;55.812;37.560;2024-02-23T12:58:39;100091.63;;;3.58;73.24
33496;BME280;19836;55.812;37.560;2024-02-23T13:01:11;100096.03;;;3.59;72.83
33496;BME280;19836;55.812;37.560;2024-02-23T13:03:39;100092.44;;;3.51;73.05
33496;BME280;19836;55.812;37.560;2024-02-23T13:06:08;100090.69;;;3.47;73.00
33496;BME280;19836;55.812;37.560;2024-02-23T13:08:35;100097.75;;;3.48;73.32
33496;BME280;19836;55.812;37.560;2024-02-23T13:11:01;100096.88;;;3.50;73.37
33496;BME280;19836;55.812;37.560;2024-02-23T13:13:30;100094.25;;;3.56;73.39
33496;BME280;19836;55.812;37.560;2024-02-23T13:20:22;100099.50;;;3.43;73.22
33496;BME280;19836;55.812;37.560;2024-02-23T13:23:46;100092.41;;;3.39;73.68
33496;BME280;19836;55.812;37.560;2024-02-23T13:30:34;100101.22;;;3.29;74.23
33496;BME280;19836;55.812;37.560;2024-02-23T13:33:20;100103.81;;;3.26;74.27
33496;BME280;19836;55.812;37.560;2024-02-23T13:36:13;100110.06;;;3.34;74.63
33496;BME280;19836;55.812;37.560;2024-02-23T13:38:39;100103.88;;;3.41;74.79
33496;BME280;19836;55.812;37.560;2024-02-23T13:41:07;100110.09;;;3.46;74.65
33496;BME280;19836;55.812;37.560;2024-02-23T13:43:33;100114.53;;;3.45;74.89
33496;BME280;19836;55.812;37.560;2024-02-23T13:49:07;100117.19;;;3.47;75.01
33496;BME280;19836;55.812;37.560;2024-02-23T13:51:43;100120.72;;;3.49;75.18
33496;BME280;19836;55.812;37.560;2024-02-23T13:54:11;100122.47;;;3.50;74.82
33496;BME280;19836;55.812;37.560;2024-02-23T13:56:37;100122.50;;;3.57;75.32
33496;BME280;19836;55.812;37.560;2024-02-23T13:59:04;100129.56;;;3.54;75.04
33496;BME280;19836;55.812;37.560;2024-02-23T14:01:32;100120.75;;;3.52;75.24
33496;BME280;19836;55.812;37.560;2024-02-23T14:03:59;100130.41;;;3.50;75.07
33496;BME280;19836;55.812;37.560;2024-02-23T14:06:25;100121.63;;;3.49;75.18
33496;BME280;19836;55.812;37.560;2024-02-23T14:08:58;100136.59;;;3.43;75.09
33496;BME280;19836;55.812;37.560;2024-02-23T14:11:30;100125.94;;;3.34;74.89
33496;BME280;19836;55.812;37.560;2024-02-23T14:13:59;100126.78;;;3.28;75.09
33496;BME280;19836;55.812;37.560;2024-02-23T14:16:25;100130.34;;;3.30;75.41
33496;BME280;19836;55.812;37.560;2024-02-23T14:18:53;100125.00;;;3.26;75.45
33496;BME280;19836;55.812;37.560;2024-02-23T14:21:29;100124.16;;;3.30;75.65
33496;BME280;19836;55.812;37.560;2024-02-23T14:24:05;100132.97;;;3.24;75.49
33496;BME280;19836;55.812;37.560;2024-02-23T14:26:31;100127.69;;;3.29;75.85
33496;BME280;19836;55.812;37.560;2024-02-23T14:29:20;100123.25;;;3.20;75.46
33496;BME280;19836;55.812;37.560;2024-02-23T14:31:49;100123.22;;;3.14;75.62
33496;BME280;19836;55.812;37.560;2024-02-23T14:34:18;100117.06;;;3.17;75.89
33496;BME280;19836;55.812;37.560;2024-02-23T14:36:46;100119.72;;;3.27;75.97
33496;BME280;19836;55.812;37.560;2024-02-23T14:39:13;100123.28;;;3.28;76.06
33496;BME280;19836;55.812;37.560;2024-02-23T14:41:39;100136.50;;;3.28;76.14
33496;BME280;19836;55.812;37.560;2024-02-23T14:44:05;100134.75;;;3.30;76.17
33496;BME280;19836;55.812;37.560;2024-02-23T14:46:31;100136.50;;;3.28;76.23
33496;BME280;19836;55.812;37.560;2024-02-23T14:48:57;100136.50;;;3.25;76.21
33496;BME280;19836;55.812;37.560;2024-02-23T14:56:14;100141.84;;;3.34;76.05
33496;BME280;19836;55.812;37.560;2024-02-23T14:58:41;100144.47;;;3.29;76.31
33496;BME280;19836;55.812;37.560;2024-02-23T15:01:14;100144.41;;;3.23;76.30
33496;BME280;19836;55.812;37.560;2024-02-23T15:03:48;100136.50;;;3.22;76.38
33496;BME280;19836;55.812;37.560;2024-02-23T15:06:19;100144.44;;;3.25;76.21
33496;BME280;19836;55.812;37.560;2024-02-23T15:08:48;100136.50;;;3.28;76.31
33496;BME280;19836;55.812;37.560;2024-02-23T15:11:14;100148.00;;;3.33;76.23
33496;BME280;19836;55.812;37.560;2024-02-23T15:13:41;100137.41;;;3.30;76.19
33496;BME280;19836;55.812;37.560;2024-02-23T15:16:07;100141.81;;;3.28;76.29
33496;BME280;19836;55.812;37.560;2024-02-23T15:18:39;100145.38;;;3.33;76.33
33496;BME280;19836;55.812;37.560;2024-02-23T15:21:09;100159.50;;;3.36;76.34
33496;BME280;19836;55.812;37.560;2024-02-23T15:23:49;100159.53;;;3.48;76.42
33496;BME280;19836;55.812;37.560;2024-02-23T15:26:15;100156.91;;;3.50;76.19
33496;BME280;19836;55.812;37.560;2024-02-23T15:28:44;100157.81;;;3.52;75.92
33496;BME280;19836;55.812;37.560;2024-02-23T15:31:13;100156.06;;;3.54;76.45
33496;BME280;19836;55.812;37.560;2024-02-23T15:33:40;100157.81;;;3.55;76.39
33496;BME280;19836;55.812;37.560;2024-02-23T15:36:25;100168.41;;;3.52;76.06
33496;BME280;19836;55.812;37.560;2024-02-23T15:39:15;100163.13;;;3.52;76.06
33496;BME280;19836;55.812;37.560;2024-02-23T15:42:05;100155.13;;;3.47;75.96
33496;BME280;19836;55.812;37.560;2024-02-23T15:44:31;100156.03;;;3.48;76.15
33496;BME280;19836;55.812;37.560;2024-02-23T15:46:57;100149.84;;;3.47;76.14
33496;BME280;19836;55.812;37.560;2024-02-23T15:49:23;100159.56;;;3.47;76.10
33496;BME280;19836;55.812;37.560;2024-02-23T15:52:17;100163.03;;;3.40;75.93
33496;BME280;19836;55.812;37.560;2024-02-23T15:54:43;100171.84;;;3.33;75.99
33496;BME280;19836;55.812;37.560;2024-02-23T15:57:09;100178.88;;;3.31;76.08
33496;BME280;19836;55.812;37.560;2024-02-23T15:59:35;100175.34;;;3.29;76.15
33496;BME280;19836;55.812;37.560;2024-02-23T16:02:01;100182.41;;;3.27;76.18